sensor_id;sensor_type;location;lat;lon;timestamp;P1;durP1;ratioP1;P2;durP2;ratioP2
37823;SDS011;23667;43.246;26.576;2022-07-22T00:01:14;9.27;;;3.78;;
37823;SDS011;23667;43.246;26.576;2022-07-22T00:03:40;15.35;;;4.75;;
37823;SDS011;23667;43.246;26.576;2022-07-22T00:06:05;14.40;;;5.97;;
37823;SDS011;23667;43.246;26.576;2022-07-22T00:08:31;15.85;;;6.25;;
37823;SDS011;23667;43.246;26.576;2022-07-22T00:10:57;14.50;;;4.55;;
37823;SDS011;23667;43.246;26.576;2022-07-22T00:13:23;10.80;;;4.22;;
37823;SDS011;23667;43.246;26.576;2022-07-22T00:15:49;6.55;;;3.45;;
37823;SDS011;23667;43.246;26.576;2022-07-22T00:18:15;20.50;;;4.32;;
37823;SDS011;23667;43.246;26.576;2022-07-22T00:20:40;11.70;;;4.47;;
37823;SDS011;23667;43.246;26.576;2022-07-22T00:23:07;8.57;;;4.28;;
37823;SDS011;23667;43.246;26.576;2022-07-22T00:25:32;14.13;;;4.40;;
37823;SDS011;23667;43.246;26.576;2022-07-22T00:27:58;9.77;;;4.97;;
37823;SDS011;23667;43.246;26.576;2022-07-22T00:30:23;11.82;;;4.47;;
37823;SDS011;23667;43.246;26.576;2022-07-22T00:32:49;8.48;;;4.88;;
37823;SDS011;23667;43.246;26.576;2022-07-22T00:35:14;17.27;;;4.40;;
37823;SDS011;23667;43.246;26.576;2022-07-22T00:37:40;10.48;;;4.28;;
37823;SDS011;23667;43.246;26.576;2022-07-22T00:40:05;10.85;;;5.22;;
37823;SDS011;23667;43.246;26.576;2022-07-22T00:42:31;13.93;;;5.05;;
37823;SDS011;23667;43.246;26.576;2022-07-22T00:44:59;6.10;;;4.30;;
37823;SDS011;23667;43.246;26.576;2022-07-22T00:47:24;8.27;;;4.15;;
37823;SDS011;23667;43.246;26.576;2022-07-22T00:49:50;10.07;;;4.35;;
37823;SDS011;23667;43.246;26.576;2022-07-22T00:52:15;9.73;;;4.10;;
37823;SDS011;23667;43.246;26.576;2022-07-22T00:54:43;14.00;;;4.70;;
37823;SDS011;23667;43.246;26.576;2022-07-22T00:57:08;11.57;;;4.55;;
37823;SDS011;23667;43.246;26.576;2022-07-22T00:59:34;10.15;;;5.07;;
37823;SDS011;23667;43.246;26.576;2022-07-22T01:01:59;10.93;;;3.97;;
37823;SDS011;23667;43.246;26.576;2022-07-22T01:04:25;8.82;;;4.38;;
37823;SDS011;23667;43.246;26.576;2022-07-22T01:06:51;9.85;;;5.07;;
37823;SDS011;23667;43.246;26.576;2022-07-22T01:09:16;10.57;;;5.20;;
37823;SDS011;23667;43.246;26.576;2022-07-22T01:11:42;10.63;;;5.65;;
37823;SDS011;23667;43.246;26.576;2022-07-22T01:14:08;7.78;;;4.55;;
37823;SDS011;23667;43.246;26.576;2022-07-22T01:16:33;18.27;;;5.03;;
37823;SDS011;23667;43.246;26.576;2022-07-22T01:18:59;11.43;;;5.72;;
37823;SDS011;23667;43.246;26.576;2022-07-22T01:21:24;12.02;;;5.60;;
37823;SDS011;23667;43.246;26.576;2022-07-22T01:23:50;8.82;;;4.70;;
37823;SDS011;23667;43.246;26.576;2022-07-22T01:26:16;8.18;;;5.60;;
37823;SDS011;23667;43.246;26.576;2022-07-22T01:28:42;10.13;;;4.30;;
37823;SDS011;23667;43.246;26.576;2022-07-22T01:31:08;12.50;;;5.43;;
37823;SDS011;23667;43.246;26.576;2022-07-22T01:33:34;8.75;;;4.47;;
37823;SDS011;23667;43.246;26.576;2022-07-22T01:36:00;8.57;;;4.60;;
37823;SDS011;23667;43.246;26.576;2022-07-22T01:38:26;9.85;;;4.78;;
37823;SDS011;23667;43.246;26.576;2022-07-22T01:40:52;14.32;;;5.15;;
37823;SDS011;23667;43.246;26.576;2022-07-22T01:43:18;8.85;;;5.13;;
37823;SDS011;23667;43.246;26.576;2022-07-22T01:45:46;8.57;;;4.78;;
37823;SDS011;23667;43.246;26.576;2022-07-22T01:48:13;11.07;;;5.00;;
37823;SDS011;23667;43.246;26.576;2022-07-22T01:50:39;10.85;;;4.90;;
37823;SDS011;23667;43.246;26.576;2022-07-22T01:53:05;8.18;;;5.28;;
37823;SDS011;23667;43.246;26.576;2022-07-22T01:55:31;10.57;;;5.40;;
37823;SDS011;23667;43.246;26.576;2022-07-22T01:57:57;13.10;;;5.43;;
37823;SDS011;23667;43.246;26.576;2022-07-22T02:00:22;8.30;;;5.40;;
37823;SDS011;23667;43.246;26.576;2022-07-22T02:02:48;8.95;;;5.10;;
37823;SDS011;23667;43.246;26.576;2022-07-22T02:05:13;9.77;;;5.60;;
37823;SDS011;23667;43.246;26.576;2022-07-22T02:07:39;14.25;;;5.38;;
37823;SDS011;23667;43.246;26.576;2022-07-22T02:10:05;7.95;;;5.53;;
37823;SDS011;23667;43.246;26.576;2022-07-22T02:12:31;13.25;;;5.28;;
37823;SDS011;23667;43.246;26.576;2022-07-22T02:14:57;9.07;;;4.97;;
37823;SDS011;23667;43.246;26.576;2022-07-22T02:17:23;10.57;;;4.68;;
37823;SDS011;23667;43.246;26.576;2022-07-22T02:19:49;17.20;;;5.07;;
37823;SDS011;23667;43.246;26.576;2022-07-22T02:22:15;9.77;;;4.47;;
37823;SDS011;23667;43.246;26.576;2022-07-22T02:24:40;10.00;;;5.32;;
37823;SDS011;23667;43.246;26.576;2022-07-22T02:27:06;12.93;;;5.20;;
37823;SDS011;23667;43.246;26.576;2022-07-22T02:29:32;9.15;;;5.03;;
37823;SDS011;23667;43.246;26.576;2022-07-22T02:31:58;7.63;;;4.80;;
37823;SDS011;23667;43.246;26.576;2022-07-22T02:34:24;17.92;;;5.13;;
37823;SDS011;23667;43.246;26.576;2022-07-22T02:36:50;14.52;;;5.70;;
37823;SDS011;23667;43.246;26.576;2022-07-22T02:39:15;7.45;;;4.47;;
37823;SDS011;23667;43.246;26.576;2022-07-22T02:41:41;11.38;;;4.70;;
37823;SDS011;23667;43.246;26.576;2022-07-22T02:44:06;12.15;;;4.82;;
37823;SDS011;23667;43.246;26.576;2022-07-22T02:46:32;10.05;;;4.97;;
37823;SDS011;23667;43.246;26.576;2022-07-22T02:48:57;13.77;;;5.72;;
37823;SDS011;23667;43.246;26.576;2022-07-22T02:51:23;9.77;;;4.75;;
37823;SDS011;23667;43.246;26.576;2022-07-22T02:53:49;11.27;;;4.93;;
37823;SDS011;23667;43.246;26.576;2022-07-22T02:56:14;15.05;;;5.65;;
37823;SDS011;23667;43.246;26.576;2022-07-22T02:58:40;17.65;;;5.90;;
37823;SDS011;23667;43.246;26.576;2022-07-22T03:01:06;9.30;;;4.90;;
37823;SDS011;23667;43.246;26.576;2022-07-22T03:03:32;14.35;;;5.43;;
37823;SDS011;23667;43.246;26.576;2022-07-22T03:05:58;12.75;;;5.05;;
37823;SDS011;23667;43.246;26.576;2022-07-22T03:08:24;17.58;;;5.72;;
37823;SDS011;23667;43.246;26.576;2022-07-22T03:10:50;14.98;;;5.43;;
37823;SDS011;23667;43.246;26.576;2022-07-22T03:13:16;16.08;;;5.20;;
37823;SDS011;23667;43.246;26.576;2022-07-22T03:15:41;14.40;;;5.95;;
37823;SDS011;23667;43.246;26.576;2022-07-22T03:18:07;12.23;;;5.78;;
37823;SDS011;23667;43.246;26.576;2022-07-22T03:20:33;13.32;;;5.35;;
37823;SDS011;23667;43.246;26.576;2022-07-22T03:22:58;10.88;;;4.68;;
37823;SDS011;23667;43.246;26.576;2022-07-22T03:25:24;11.82;;;5.80;;
37823;SDS011;23667;43.246;26.576;2022-07-22T03:27:49;13.52;;;5.22;;
37823;SDS011;23667;43.246;26.576;2022-07-22T03:30:15;12.75;;;5.53;;
37823;SDS011;23667;43.246;26.576;2022-07-22T03:32:41;13.63;;;6.53;;
37823;SDS011;23667;43.246;26.576;2022-07-22T03:35:14;15.30;;;5.57;;
37823;SDS011;23667;43.246;26.576;2022-07-22T03:37:39;11.35;;;4.93;;
37823;SDS011;23667;43.246;26.576;2022-07-22T03:40:05;19.25;;;4.97;;
37823;SDS011;23667;43.246;26.576;2022-07-22T03:42:31;13.32;;;5.00;;
37823;SDS011;23667;43.246;26.576;2022-07-22T03:44:57;10.93;;;5.85;;
37823;SDS011;23667;43.246;26.576;2022-07-22T03:47:22;15.18;;;5.28;;
37823;SDS011;23667;43.246;26.576;2022-07-22T03:49:48;14.48;;;6.18;;
37823;SDS011;23667;43.246;26.576;2022-07-22T03:52:15;20.85;;;6.28;;
37823;SDS011;23667;43.246;26.576;2022-07-22T03:54:41;17.40;;;5.70;;
37823;SDS011;23667;43.246;26.576;2022-07-22T03:57:07;10.07;;;5.38;;
37823;SDS011;23667;43.246;26.576;2022-07-22T03:59:33;8.35;;;5.35;;
37823;SDS011;23667;43.246;26.576;2022-07-22T04:01:59;10.57;;;4.78;;
37823;SDS011;23667;43.246;26.576;2022-07-22T04:04:25;13.48;;;5.13;;
37823;SDS011;23667;43.246;26.576;2022-07-22T04:06:50;15.25;;;6.22;;
37823;SDS011;23667;43.246;26.576;2022-07-22T04:09:16;16.08;;;6.28;;
37823;SDS011;23667;43.246;26.576;2022-07-22T04:11:43;20.35;;;5.93;;
37823;SDS011;23667;43.246;26.576;2022-07-22T04:14:08;9.50;;;5.97;;
37823;SDS011;23667;43.246;26.576;2022-07-22T04:16:34;9.82;;;5.55;;
37823;SDS011;23667;43.246;26.576;2022-07-22T04:19:00;15.50;;;6.40;;
37823;SDS011;23667;43.246;26.576;2022-07-22T04:21:26;20.48;;;7.10;;
37823;SDS011;23667;43.246;26.576;2022-07-22T04:23:52;11.80;;;6.28;;
37823;SDS011;23667;43.246;26.576;2022-07-22T04:26:18;17.73;;;6.32;;
37823;SDS011;23667;43.246;26.576;2022-07-22T04:28:44;12.35;;;6.60;;
37823;SDS011;23667;43.246;26.576;2022-07-22T04:31:09;17.40;;;6.63;;
37823;SDS011;23667;43.246;26.576;2022-07-22T04:33:35;23.58;;;7.03;;
37823;SDS011;23667;43.246;26.576;2022-07-22T04:36:00;17.83;;;6.10;;
37823;SDS011;23667;43.246;26.576;2022-07-22T04:38:26;20.30;;;6.38;;
37823;SDS011;23667;43.246;26.576;2022-07-22T04:40:52;23.85;;;6.28;;
37823;SDS011;23667;43.246;26.576;2022-07-22T04:43:18;11.18;;;6.45;;
37823;SDS011;23667;43.246;26.576;2022-07-22T04:45:43;18.02;;;5.72;;
37823;SDS011;23667;43.246;26.576;2022-07-22T04:48:09;15.38;;;5.15;;
37823;SDS011;23667;43.246;26.576;2022-07-22T04:50:37;20.23;;;5.68;;
37823;SDS011;23667;43.246;26.576;2022-07-22T04:53:03;13.73;;;5.65;;
37823;SDS011;23667;43.246;26.576;2022-07-22T04:55:29;11.27;;;4.75;;
37823;SDS011;23667;43.246;26.576;2022-07-22T04:57:55;13.30;;;4.90;;
37823;SDS011;23667;43.246;26.576;2022-07-22T05:00:20;15.65;;;4.78;;
37823;SDS011;23667;43.246;26.576;2022-07-22T05:02:46;15.88;;;6.35;;
37823;SDS011;23667;43.246;26.576;2022-07-22T05:05:12;12.80;;;5.20;;
37823;SDS011;23667;43.246;26.576;2022-07-22T05:07:38;16.77;;;5.38;;
37823;SDS011;23667;43.246;26.576;2022-07-22T05:10:03;14.82;;;5.75;;
37823;SDS011;23667;43.246;26.576;2022-07-22T05:12:29;17.92;;;5.60;;
37823;SDS011;23667;43.246;26.576;2022-07-22T05:14:55;14.80;;;5.65;;
37823;SDS011;23667;43.246;26.576;2022-07-22T05:17:20;15.88;;;5.70;;
37823;SDS011;23667;43.246;26.576;2022-07-22T05:19:46;16.05;;;5.45;;
37823;SDS011;23667;43.246;26.576;2022-07-22T05:22:12;11.70;;;3.80;;
37823;SDS011;23667;43.246;26.576;2022-07-22T05:24:37;14.07;;;3.72;;
37823;SDS011;23667;43.246;26.576;2022-07-22T05:27:03;10.50;;;3.55;;
37823;SDS011;23667;43.246;26.576;2022-07-22T05:29:28;7.40;;;3.28;;
37823;SDS011;23667;43.246;26.576;2022-07-22T05:31:56;14.50;;;3.63;;
37823;SDS011;23667;43.246;26.576;2022-07-22T05:34:21;12.60;;;2.85;;
37823;SDS011;23667;43.246;26.576;2022-07-22T05:36:47;12.95;;;3.22;;
37823;SDS011;23667;43.246;26.576;2022-07-22T05:39:13;12.80;;;3.53;;
37823;SDS011;23667;43.246;26.576;2022-07-22T05:41:39;6.20;;;2.75;;
37823;SDS011;23667;43.246;26.576;2022-07-22T05:44:05;8.30;;;2.65;;
37823;SDS011;23667;43.246;26.576;2022-07-22T05:46:31;11.73;;;2.83;;
37823;SDS011;23667;43.246;26.576;2022-07-22T05:48:57;10.02;;;2.75;;
37823;SDS011;23667;43.246;26.576;2022-07-22T05:51:22;12.45;;;2.65;;
37823;SDS011;23667;43.246;26.576;2022-07-22T05:53:48;14.95;;;3.03;;
37823;SDS011;23667;43.246;26.576;2022-07-22T05:56:14;9.10;;;3.40;;
37823;SDS011;23667;43.246;26.576;2022-07-22T05:58:40;6.72;;;2.97;;
37823;SDS011;23667;43.246;26.576;2022-07-22T06:01:07;7.15;;;3.33;;
37823;SDS011;23667;43.246;26.576;2022-07-22T06:03:33;10.82;;;3.60;;
37823;SDS011;23667;43.246;26.576;2022-07-22T06:05:59;19.15;;;4.13;;
37823;SDS011;23667;43.246;26.576;2022-07-22T06:08:26;83.80;;;8.80;;
37823;SDS011;23667;43.246;26.576;2022-07-22T06:10:52;14.63;;;4.00;;
37823;SDS011;23667;43.246;26.576;2022-07-22T06:13:18;7.88;;;3.65;;
37823;SDS011;23667;43.246;26.576;2022-07-22T06:15:51;18.17;;;4.30;;
37823;SDS011;23667;43.246;26.576;2022-07-22T06:18:17;10.57;;;3.50;;
37823;SDS011;23667;43.246;26.576;2022-07-22T06:20:43;11.35;;;3.33;;
37823;SDS011;23667;43.246;26.576;2022-07-22T06:23:09;8.60;;;4.10;;
37823;SDS011;23667;43.246;26.576;2022-07-22T06:25:38;14.48;;;4.07;;
37823;SDS011;23667;43.246;26.576;2022-07-22T06:28:04;13.48;;;3.22;;
37823;SDS011;23667;43.246;26.576;2022-07-22T06:33:01;8.18;;;3.05;;
37823;SDS011;23667;43.246;26.576;2022-07-22T06:35:37;8.73;;;2.55;;
37823;SDS011;23667;43.246;26.576;2022-07-22T06:38:07;4.38;;;2.33;;
37823;SDS011;23667;43.246;26.576;2022-07-22T06:40:35;8.45;;;4.65;;
37823;SDS011;23667;43.246;26.576;2022-07-22T06:43:01;7.03;;;3.03;;
37823;SDS011;23667;43.246;26.576;2022-07-22T06:45:30;8.80;;;2.10;;
37823;SDS011;23667;43.246;26.576;2022-07-22T06:47:56;5.20;;;2.08;;
37823;SDS011;23667;43.246;26.576;2022-07-22T06:50:22;7.15;;;1.67;;
37823;SDS011;23667;43.246;26.576;2022-07-22T06:52:48;6.57;;;1.98;;
37823;SDS011;23667;43.246;26.576;2022-07-22T06:55:14;5.75;;;1.60;;
37823;SDS011;23667;43.246;26.576;2022-07-22T06:57:40;9.38;;;1.63;;
37823;SDS011;23667;43.246;26.576;2022-07-22T07:00:05;6.32;;;1.70;;
37823;SDS011;23667;43.246;26.576;2022-07-22T07:02:33;16.90;;;1.95;;
37823;SDS011;23667;43.246;26.576;2022-07-22T07:04:58;6.80;;;1.52;;
37823;SDS011;23667;43.246;26.576;2022-07-22T07:07:24;4.53;;;1.50;;
37823;SDS011;23667;43.246;26.576;2022-07-22T07:09:49;7.10;;;1.52;;
37823;SDS011;23667;43.246;26.576;2022-07-22T07:12:15;3.20;;;1.00;;
37823;SDS011;23667;43.246;26.576;2022-07-22T07:14:41;2.83;;;1.02;;
37823;SDS011;23667;43.246;26.576;2022-07-22T07:17:06;7.43;;;1.20;;
37823;SDS011;23667;43.246;26.576;2022-07-22T07:19:32;7.78;;;0.80;;
37823;SDS011;23667;43.246;26.576;2022-07-22T07:21:57;9.27;;;1.30;;
37823;SDS011;23667;43.246;26.576;2022-07-22T07:24:23;4.80;;;0.90;;
37823;SDS011;23667;43.246;26.576;2022-07-22T07:26:48;4.50;;;0.82;;
37823;SDS011;23667;43.246;26.576;2022-07-22T07:29:14;9.30;;;0.75;;
37823;SDS011;23667;43.246;26.576;2022-07-22T07:31:40;5.65;;;0.75;;
37823;SDS011;23667;43.246;26.576;2022-07-22T07:34:05;3.58;;;1.00;;
37823;SDS011;23667;43.246;26.576;2022-07-22T07:36:31;4.68;;;1.35;;
37823;SDS011;23667;43.246;26.576;2022-07-22T07:38:56;6.57;;;0.90;;
37823;SDS011;23667;43.246;26.576;2022-07-22T07:41:22;5.55;;;0.68;;
37823;SDS011;23667;43.246;26.576;2022-07-22T07:43:47;7.50;;;0.93;;
37823;SDS011;23667;43.246;26.576;2022-07-22T07:46:13;4.65;;;1.00;;
37823;SDS011;23667;43.246;26.576;2022-07-22T07:48:39;7.35;;;0.70;;
37823;SDS011;23667;43.246;26.576;2022-07-22T07:51:04;2.13;;;0.50;;
37823;SDS011;23667;43.246;26.576;2022-07-22T07:53:30;5.63;;;0.50;;
37823;SDS011;23667;43.246;26.576;2022-07-22T07:55:56;3.42;;;0.85;;
37823;SDS011;23667;43.246;26.576;2022-07-22T07:58:22;5.50;;;0.80;;
37823;SDS011;23667;43.246;26.576;2022-07-22T08:00:48;6.57;;;0.70;;
37823;SDS011;23667;43.246;26.576;2022-07-22T08:03:16;6.00;;;0.50;;
37823;SDS011;23667;43.246;26.576;2022-07-22T08:05:42;9.18;;;0.70;;
37823;SDS011;23667;43.246;26.576;2022-07-22T08:08:07;4.50;;;0.60;;
37823;SDS011;23667;43.246;26.576;2022-07-22T08:10:33;5.85;;;0.57;;
37823;SDS011;23667;43.246;26.576;2022-07-22T08:12:59;5.68;;;0.40;;
37823;SDS011;23667;43.246;26.576;2022-07-22T08:15:25;1.75;;;0.57;;
37823;SDS011;23667;43.246;26.576;2022-07-22T08:17:52;5.85;;;0.60;;
37823;SDS011;23667;43.246;26.576;2022-07-22T08:20:18;3.45;;;0.55;;
37823;SDS011;23667;43.246;26.576;2022-07-22T08:22:44;3.70;;;0.50;;
37823;SDS011;23667;43.246;26.576;2022-07-22T08:25:09;2.40;;;0.40;;
37823;SDS011;23667;43.246;26.576;2022-07-22T08:27:38;1.83;;;0.50;;
37823;SDS011;23667;43.246;26.576;2022-07-22T08:30:09;5.35;;;0.40;;
37823;SDS011;23667;43.246;26.576;2022-07-22T08:32:35;2.70;;;0.40;;
37823;SDS011;23667;43.246;26.576;2022-07-22T08:35:01;3.63;;;0.55;;
37823;SDS011;23667;43.246;26.576;2022-07-22T08:37:28;3.75;;;0.88;;
37823;SDS011;23667;43.246;26.576;2022-07-22T08:39:54;5.15;;;0.70;;
37823;SDS011;23667;43.246;26.576;2022-07-22T08:42:21;6.82;;;0.60;;
37823;SDS011;23667;43.246;26.576;2022-07-22T08:44:47;3.10;;;0.50;;
37823;SDS011;23667;43.246;26.576;2022-07-22T08:47:14;13.50;;;0.68;;
37823;SDS011;23667;43.246;26.576;2022-07-22T08:49:39;3.45;;;0.50;;
37823;SDS011;23667;43.246;26.576;2022-07-22T08:52:05;5.75;;;0.50;;
37823;SDS011;23667;43.246;26.576;2022-07-22T08:54:32;3.05;;;0.43;;
37823;SDS011;23667;43.246;26.576;2022-07-22T08:56:58;7.78;;;0.60;;
37823;SDS011;23667;43.246;26.576;2022-07-22T08:59:24;5.07;;;0.60;;
37823;SDS011;23667;43.246;26.576;2022-07-22T09:04:51;6.30;;;0.50;;
37823;SDS011;23667;43.246;26.576;2022-07-22T09:07:31;9.98;;;0.70;;
37823;SDS011;23667;43.246;26.576;2022-07-22T09:09:59;4.65;;;0.70;;
37823;SDS011;23667;43.246;26.576;2022-07-22T09:12:33;6.40;;;0.50;;
37823;SDS011;23667;43.246;26.576;2022-07-22T09:15:46;6.97;;;0.70;;
37823;SDS011;23667;43.246;26.576;2022-07-22T09:23:22;4.90;;;0.90;;
37823;SDS011;23667;43.246;26.576;2022-07-22T09:25:52;2.47;;;0.85;;
37823;SDS011;23667;43.246;26.576;2022-07-22T09:28:21;2.05;;;0.50;;
37823;SDS011;23667;43.246;26.576;2022-07-22T09:30:51;4.05;;;0.60;;
37823;SDS011;23667;43.246;26.576;2022-07-22T09:33:19;6.40;;;0.50;;
37823;SDS011;23667;43.246;26.576;2022-07-22T09:35:45;5.95;;;0.50;;
37823;SDS011;23667;43.246;26.576;2022-07-22T09:38:12;5.68;;;0.43;;
37823;SDS011;23667;43.246;26.576;2022-07-22T09:40:40;1.85;;;0.30;;
37823;SDS011;23667;43.246;26.576;2022-07-22T09:43:08;5.53;;;0.60;;
37823;SDS011;23667;43.246;26.576;2022-07-22T09:45:48;6.18;;;0.70;;
37823;SDS011;23667;43.246;26.576;2022-07-22T09:48:22;5.63;;;0.60;;
37823;SDS011;23667;43.246;26.576;2022-07-22T09:50:48;3.17;;;0.50;;
37823;SDS011;23667;43.246;26.576;2022-07-22T09:53:16;5.40;;;0.82;;
37823;SDS011;23667;43.246;26.576;2022-07-22T09:55:43;3.60;;;0.60;;
37823;SDS011;23667;43.246;26.576;2022-07-22T09:58:08;3.97;;;0.55;;
37823;SDS011;23667;43.246;26.576;2022-07-22T10:00:34;1.90;;;0.50;;
37823;SDS011;23667;43.246;26.576;2022-07-22T10:03:02;8.95;;;0.60;;
37823;SDS011;23667;43.246;26.576;2022-07-22T10:05:31;3.97;;;0.70;;
37823;SDS011;23667;43.246;26.576;2022-07-22T10:07:59;5.78;;;0.50;;
37823;SDS011;23667;43.246;26.576;2022-07-22T10:10:27;9.23;;;1.10;;
37823;SDS011;23667;43.246;26.576;2022-07-22T10:12:54;1.75;;;0.47;;
37823;SDS011;23667;43.246;26.576;2022-07-22T10:15:21;8.27;;;1.23;;
37823;SDS011;23667;43.246;26.576;2022-07-22T10:17:48;8.07;;;0.90;;
37823;SDS011;23667;43.246;26.576;2022-07-22T10:20:21;2.45;;;0.60;;
37823;SDS011;23667;43.246;26.576;2022-07-22T10:22:50;4.50;;;0.50;;
37823;SDS011;23667;43.246;26.576;2022-07-22T10:25:20;9.88;;;0.50;;
37823;SDS011;23667;43.246;26.576;2022-07-22T10:27:57;3.10;;;0.57;;
37823;SDS011;23667;43.246;26.576;2022-07-22T10:38:08;4.65;;;0.40;;
37823;SDS011;23667;43.246;26.576;2022-07-22T10:40:46;2.17;;;0.40;;
37823;SDS011;23667;43.246;26.576;2022-07-22T10:43:28;4.03;;;0.50;;
37823;SDS011;23667;43.246;26.576;2022-07-22T10:46:10;9.95;;;0.60;;
37823;SDS011;23667;43.246;26.576;2022-07-22T10:51:12;3.53;;;0.50;;
37823;SDS011;23667;43.246;26.576;2022-07-22T10:53:55;3.15;;;0.40;;
37823;SDS011;23667;43.246;26.576;2022-07-22T10:56:25;4.97;;;0.60;;
37823;SDS011;23667;43.246;26.576;2022-07-22T10:58:58;5.28;;;0.80;;
37823;SDS011;23667;43.246;26.576;2022-07-22T11:01:30;11.35;;;0.82;;
37823;SDS011;23667;43.246;26.576;2022-07-22T11:04:06;0.95;;;0.40;;
37823;SDS011;23667;43.246;26.576;2022-07-22T11:06:39;5.22;;;0.95;;
37823;SDS011;23667;43.246;26.576;2022-07-22T11:09:06;8.50;;;0.70;;
37823;SDS011;23667;43.246;26.576;2022-07-22T11:14:12;5.20;;;0.47;;
37823;SDS011;23667;43.246;26.576;2022-07-22T11:16:47;4.57;;;0.40;;
37823;SDS011;23667;43.246;26.576;2022-07-22T11:19:14;1.92;;;0.40;;
37823;SDS011;23667;43.246;26.576;2022-07-22T11:21:39;7.53;;;0.43;;
37823;SDS011;23667;43.246;26.576;2022-07-22T11:24:06;6.35;;;0.50;;
37823;SDS011;23667;43.246;26.576;2022-07-22T11:29:07;4.22;;;0.40;;
37823;SDS011;23667;43.246;26.576;2022-07-22T11:31:33;7.50;;;0.63;;
37823;SDS011;23667;43.246;26.576;2022-07-22T11:34:10;7.55;;;0.60;;
37823;SDS011;23667;43.246;26.576;2022-07-22T11:36:40;2.75;;;0.30;;
37823;SDS011;23667;43.246;26.576;2022-07-22T11:39:08;5.80;;;0.40;;
37823;SDS011;23667;43.246;26.576;2022-07-22T11:41:36;4.80;;;0.40;;
37823;SDS011;23667;43.246;26.576;2022-07-22T11:44:02;8.15;;;0.60;;
37823;SDS011;23667;43.246;26.576;2022-07-22T11:46:28;11.40;;;0.55;;
37823;SDS011;23667;43.246;26.576;2022-07-22T11:49:08;1.50;;;0.65;;
37823;SDS011;23667;43.246;26.576;2022-07-22T11:51:36;3.53;;;0.40;;
37823;SDS011;23667;43.246;26.576;2022-07-22T11:54:03;3.65;;;0.55;;
37823;SDS011;23667;43.246;26.576;2022-07-22T11:56:30;1.77;;;0.40;;
37823;SDS011;23667;43.246;26.576;2022-07-22T11:58:56;6.07;;;0.63;;
37823;SDS011;23667;43.246;26.576;2022-07-22T12:01:23;6.25;;;0.70;;
37823;SDS011;23667;43.246;26.576;2022-07-22T12:03:55;6.35;;;0.57;;
37823;SDS011;23667;43.246;26.576;2022-07-22T12:06:27;12.02;;;0.60;;
37823;SDS011;23667;43.246;26.576;2022-07-22T12:08:54;11.52;;;0.50;;
37823;SDS011;23667;43.246;26.576;2022-07-22T12:11:26;5.03;;;0.40;;
37823;SDS011;23667;43.246;26.576;2022-07-22T12:13:52;0.93;;;0.38;;
37823;SDS011;23667;43.246;26.576;2022-07-22T12:16:28;5.78;;;0.40;;
37823;SDS011;23667;43.246;26.576;2022-07-22T12:21:24;5.63;;;0.50;;
37823;SDS011;23667;43.246;26.576;2022-07-22T12:24:01;4.55;;;0.50;;
37823;SDS011;23667;43.246;26.576;2022-07-22T12:26:48;1.77;;;0.47;;
37823;SDS011;23667;43.246;26.576;2022-07-22T12:29:25;7.88;;;0.60;;
37823;SDS011;23667;43.246;26.576;2022-07-22T12:31:54;3.55;;;0.43;;
37823;SDS011;23667;43.246;26.576;2022-07-22T12:37:20;6.05;;;0.60;;
37823;SDS011;23667;43.246;26.576;2022-07-22T12:42:31;2.03;;;0.40;;
37823;SDS011;23667;43.246;26.576;2022-07-22T12:47:51;1.05;;;0.30;;
37823;SDS011;23667;43.246;26.576;2022-07-22T12:52:57;6.10;;;0.40;;
37823;SDS011;23667;43.246;26.576;2022-07-22T12:55:25;8.48;;;0.63;;
37823;SDS011;23667;43.246;26.576;2022-07-22T12:57:51;4.85;;;0.75;;
37823;SDS011;23667;43.246;26.576;2022-07-22T13:00:28;9.50;;;0.90;;
37823;SDS011;23667;43.246;26.576;2022-07-22T13:02:54;5.13;;;0.40;;
37823;SDS011;23667;43.246;26.576;2022-07-22T13:05:21;4.18;;;0.30;;
37823;SDS011;23667;43.246;26.576;2022-07-22T13:07:48;2.33;;;0.68;;
37823;SDS011;23667;43.246;26.576;2022-07-22T13:10:13;3.67;;;0.50;;
37823;SDS011;23667;43.246;26.576;2022-07-22T13:12:40;4.10;;;0.40;;
37823;SDS011;23667;43.246;26.576;2022-07-22T13:15:07;4.88;;;0.77;;
37823;SDS011;23667;43.246;26.576;2022-07-22T13:17:33;6.22;;;0.45;;
37823;SDS011;23667;43.246;26.576;2022-07-22T13:19:59;7.95;;;0.50;;
37823;SDS011;23667;43.246;26.576;2022-07-22T13:22:25;3.55;;;0.70;;
37823;SDS011;23667;43.246;26.576;2022-07-22T13:24:50;7.57;;;0.75;;
37823;SDS011;23667;43.246;26.576;2022-07-22T13:27:16;8.70;;;0.50;;
37823;SDS011;23667;43.246;26.576;2022-07-22T13:29:42;5.30;;;0.50;;
37823;SDS011;23667;43.246;26.576;2022-07-22T13:32:07;8.25;;;0.55;;
37823;SDS011;23667;43.246;26.576;2022-07-22T13:34:33;4.53;;;0.50;;
37823;SDS011;23667;43.246;26.576;2022-07-22T13:36:59;5.78;;;0.60;;
37823;SDS011;23667;43.246;26.576;2022-07-22T13:39:25;2.17;;;0.40;;
37823;SDS011;23667;43.246;26.576;2022-07-22T13:41:51;4.07;;;0.63;;
37823;SDS011;23667;43.246;26.576;2022-07-22T13:44:16;4.68;;;0.40;;
37823;SDS011;23667;43.246;26.576;2022-07-22T13:46:42;4.63;;;0.38;;
37823;SDS011;23667;43.246;26.576;2022-07-22T13:49:09;3.50;;;0.60;;
37823;SDS011;23667;43.246;26.576;2022-07-22T13:51:34;2.25;;;0.45;;
37823;SDS011;23667;43.246;26.576;2022-07-22T13:54:00;6.95;;;0.47;;
37823;SDS011;23667;43.246;26.576;2022-07-22T13:56:25;5.25;;;0.40;;
37823;SDS011;23667;43.246;26.576;2022-07-22T13:58:51;2.95;;;0.57;;
37823;SDS011;23667;43.246;26.576;2022-07-22T14:01:17;3.55;;;0.47;;
37823;SDS011;23667;43.246;26.576;2022-07-22T14:03:42;4.22;;;1.05;;
37823;SDS011;23667;43.246;26.576;2022-07-22T14:06:08;7.45;;;0.60;;
37823;SDS011;23667;43.246;26.576;2022-07-22T14:08:34;7.97;;;0.80;;
37823;SDS011;23667;43.246;26.576;2022-07-22T14:11:00;3.65;;;0.50;;
37823;SDS011;23667;43.246;26.576;2022-07-22T14:13:26;3.80;;;0.43;;
37823;SDS011;23667;43.246;26.576;2022-07-22T14:15:52;8.13;;;0.90;;
37823;SDS011;23667;43.246;26.576;2022-07-22T14:18:17;4.72;;;0.60;;
37823;SDS011;23667;43.246;26.576;2022-07-22T14:20:43;2.92;;;0.47;;
37823;SDS011;23667;43.246;26.576;2022-07-22T14:23:09;4.47;;;0.60;;
37823;SDS011;23667;43.246;26.576;2022-07-22T14:25:35;3.17;;;0.40;;
37823;SDS011;23667;43.246;26.576;2022-07-22T14:28:02;5.38;;;0.60;;
37823;SDS011;23667;43.246;26.576;2022-07-22T14:30:28;5.15;;;0.60;;
37823;SDS011;23667;43.246;26.576;2022-07-22T14:32:54;8.07;;;0.50;;
37823;SDS011;23667;43.246;26.576;2022-07-22T14:35:20;4.78;;;0.50;;
37823;SDS011;23667;43.246;26.576;2022-07-22T14:37:46;3.60;;;0.50;;
37823;SDS011;23667;43.246;26.576;2022-07-22T14:40:12;6.70;;;0.57;;
37823;SDS011;23667;43.246;26.576;2022-07-22T14:42:38;7.20;;;0.52;;
37823;SDS011;23667;43.246;26.576;2022-07-22T14:45:04;5.30;;;0.40;;
37823;SDS011;23667;43.246;26.576;2022-07-22T14:47:30;4.85;;;0.50;;
37823;SDS011;23667;43.246;26.576;2022-07-22T14:49:56;3.15;;;0.50;;
37823;SDS011;23667;43.246;26.576;2022-07-22T14:52:22;1.35;;;0.40;;
37823;SDS011;23667;43.246;26.576;2022-07-22T14:54:47;4.55;;;0.75;;
37823;SDS011;23667;43.246;26.576;2022-07-22T14:57:12;5.07;;;0.70;;
37823;SDS011;23667;43.246;26.576;2022-07-22T14:59:38;2.75;;;0.60;;
37823;SDS011;23667;43.246;26.576;2022-07-22T15:02:04;3.97;;;0.63;;
37823;SDS011;23667;43.246;26.576;2022-07-22T15:04:29;2.50;;;0.65;;
37823;SDS011;23667;43.246;26.576;2022-07-22T15:06:55;5.05;;;0.75;;
37823;SDS011;23667;43.246;26.576;2022-07-22T15:09:20;2.70;;;0.73;;